createdAt,value
2023-04-29T00:02:57.080Z,8.67
2023-04-29T00:06:59.020Z,8.68
2023-04-29T00:11:00.822Z,8.68
2023-04-29T00:15:04.889Z,8.67
2023-04-29T00:19:07.209Z,8.66
2023-04-29T00:23:09.370Z,8.67
2023-04-29T00:27:12.153Z,8.67
2023-04-29T00:31:14.761Z,8.63
2023-04-29T00:35:16.732Z,8.62
2023-04-29T00:39:18.679Z,8.61
2023-04-29T00:43:20.615Z,8.57
2023-04-29T00:47:22.580Z,8.58
2023-04-29T00:51:24.830Z,8.57
2023-04-29T00:55:27.914Z,8.57
2023-04-29T00:59:32.525Z,8.55
2023-04-29T01:03:34.437Z,8.55
2023-04-29T01:07:45.371Z,8.56
2023-04-29T01:12:07.004Z,8.60
2023-04-29T01:16:13.278Z,8.59
2023-04-29T01:20:15.704Z,8.61
2023-04-29T01:24:17.832Z,8.60
2023-04-29T01:28:46.664Z,8.60
2023-04-29T01:32:59.366Z,8.59
2023-04-29T01:37:27.185Z,8.56
2023-04-29T01:41:39.362Z,8.59
2023-04-29T01:45:53.686Z,8.60
2023-04-29T01:49:56.884Z,8.57
2023-04-29T01:53:59.250Z,8.60
2023-04-29T01:58:01.658Z,8.60
2023-04-29T02:02:21.709Z,8.62
2023-04-29T02:06:33.795Z,8.63
2023-04-29T02:10:38.429Z,8.64
2023-04-29T02:14:57.471Z,8.64
2023-04-29T02:19:00.936Z,8.64
2023-04-29T02:23:02.842Z,8.64
2023-04-29T02:27:06.301Z,8.66
2023-04-29T02:31:08.213Z,8.67
2023-04-29T02:35:10.316Z,8.67
2023-04-29T02:39:12.255Z,8.68
2023-04-29T02:43:14.376Z,8.68
2023-04-29T02:47:16.176Z,8.67
2023-04-29T02:51:17.954Z,8.67
2023-04-29T02:55:20.380Z,8.68
2023-04-29T02:59:22.656Z,8.71
2023-04-29T03:03:24.650Z,8.72
2023-04-29T03:07:28.774Z,8.75
2023-04-29T03:11:30.870Z,8.76
2023-04-29T03:15:32.759Z,8.78
2023-04-29T03:19:34.658Z,8.81
2023-04-29T03:23:36.528Z,8.82
2023-04-29T03:27:39.858Z,8.82
2023-04-29T03:31:42.778Z,8.83
2023-04-29T03:35:45.928Z,8.83
2023-04-29T03:40:19.896Z,8.85
2023-04-29T03:44:22.930Z,8.85
2023-04-29T03:48:25.032Z,8.86
2023-04-29T03:52:27.790Z,8.87
2023-04-29T03:56:35.040Z,8.88
2023-04-29T04:00:37.109Z,8.88
2023-04-29T04:04:44.327Z,8.89
2023-04-29T04:08:46.723Z,8.87
2023-04-29T04:12:52.752Z,8.88
2023-04-29T04:16:55.903Z,8.85
2023-04-29T04:20:58.187Z,8.83
2023-04-29T04:25:01.411Z,8.82
2023-04-29T04:29:03.699Z,8.82
2023-04-29T04:33:13.133Z,8.81
2023-04-29T04:37:18.413Z,8.81
2023-04-29T04:41:31.672Z,8.80
2023-04-29T04:45:34.484Z,8.82
2023-04-29T04:49:36.488Z,8.84
2023-04-29T04:53:39.149Z,8.86
2023-04-29T04:57:47.847Z,8.88
2023-04-29T05:01:49.694Z,8.90
2023-04-29T05:05:59.116Z,8.91
2023-04-29T05:10:01.092Z,8.91
2023-04-29T05:14:03.238Z,8.94
2023-04-29T05:18:05.325Z,8.95
2023-04-29T05:22:07.608Z,8.96
2023-04-29T05:26:10.434Z,8.94
2023-04-29T05:30:12.674Z,8.97
2023-04-29T05:34:14.584Z,8.99
2023-04-29T05:38:17.565Z,9.02
2023-04-29T05:42:24.950Z,9.06
2023-04-29T05:46:26.793Z,9.06
2023-04-29T05:50:29.032Z,9.10
2023-04-29T05:54:30.929Z,9.16
2023-04-29T05:58:33.044Z,9.26
2023-04-29T06:02:39.487Z,9.39
2023-04-29T06:06:47.819Z,9.52
2023-04-29T06:11:05.480Z,9.57
2023-04-29T06:15:08.030Z,9.60
2023-04-29T06:19:10.426Z,9.62
2023-04-29T06:23:12.915Z,9.61
2023-04-29T06:27:14.918Z,9.65
2023-04-29T06:31:17.099Z,9.67
2023-04-29T06:35:19.013Z,9.65
2023-04-29T06:39:39.589Z,9.69
2023-04-29T06:43:52.346Z,9.71
2023-04-29T06:48:13.124Z,9.76
2023-04-29T06:52:21.116Z,9.81
2023-04-29T06:56:24.092Z,9.86
2023-04-29T07:00:26.088Z,9.92
2023-04-29T07:04:30.956Z,9.99
2023-04-29T07:08:33.457Z,10.02
2023-04-29T07:12:35.321Z,10.08
2023-04-29T07:16:37.220Z,10.13
2023-04-29T07:20:39.007Z,10.17
2023-04-29T07:24:41.721Z,10.24
2023-04-29T07:28:44.387Z,10.29
2023-04-29T07:32:46.444Z,10.34
2023-04-29T07:36:48.333Z,10.37
2023-04-29T07:40:50.136Z,10.46
2023-04-29T07:44:52.100Z,10.50
2023-04-29T07:48:54.645Z,10.59
2023-04-29T07:52:58.042Z,10.67
2023-04-29T07:57:00.732Z,10.72
2023-04-29T08:01:12.562Z,10.72
2023-04-29T08:05:16.028Z,10.83
2023-04-29T08:09:18.202Z,10.96
2023-04-29T08:13:19.994Z,11.02
2023-04-29T08:17:21.900Z,11.04
2023-04-29T08:21:24.444Z,11.08
2023-04-29T08:25:27.328Z,11.09
2023-04-29T08:29:33.007Z,11.11
2023-04-29T08:33:35.466Z,11.08
2023-04-29T08:37:37.836Z,11.09
2023-04-29T08:41:39.750Z,11.22
2023-04-29T08:45:45.444Z,11.40
2023-04-29T08:49:47.289Z,11.48
2023-04-29T08:53:49.152Z,11.41
2023-04-29T08:57:54.673Z,11.44
2023-04-29T09:01:57.618Z,11.51
2023-04-29T09:06:01.842Z,11.59
2023-04-29T09:10:05.293Z,11.70
2023-04-29T09:14:08.436Z,11.89
2023-04-29T09:18:10.387Z,12.07
2023-04-29T09:22:12.157Z,12.22
2023-04-29T09:26:14.951Z,12.35
2023-04-29T09:30:17.246Z,12.52
2023-04-29T09:34:35.838Z,12.66
2023-04-29T09:38:54.061Z,12.82
2023-04-29T09:42:55.954Z,12.64
2023-04-29T09:47:03.558Z,12.51
2023-04-29T09:51:06.331Z,12.47
2023-04-29T09:55:08.737Z,12.53
2023-04-29T09:59:10.593Z,12.70
2023-04-29T10:03:13.289Z,12.77
2023-04-29T10:07:17.458Z,12.74
2023-04-29T10:11:20.626Z,12.70
2023-04-29T10:15:44.181Z,12.72
2023-04-29T10:20:00.073Z,12.73
2023-04-29T10:24:03.816Z,12.75
2023-04-29T10:28:09.794Z,12.66
2023-04-29T10:32:13.737Z,12.68
2023-04-29T10:36:16.330Z,12.66
2023-04-29T10:40:54.949Z,12.73
2023-04-29T10:45:27.619Z,12.87
2023-04-29T10:49:34.966Z,12.94
2023-04-29T10:53:38.578Z,12.89
2023-04-29T10:57:42.447Z,12.99
2023-04-29T11:01:49.938Z,13.10
2023-04-29T11:06:09.394Z,13.16
2023-04-29T11:10:13.590Z,13.22
2023-04-29T11:14:21.496Z,13.32
2023-04-29T11:18:23.796Z,13.34
2023-04-29T11:22:34.008Z,13.33
2023-04-29T11:26:36.740Z,13.40
2023-04-29T11:30:38.920Z,13.40
2023-04-29T11:34:40.821Z,13.52
2023-04-29T11:38:42.655Z,13.63
2023-04-29T11:42:46.275Z,13.66
2023-04-29T11:46:48.210Z,13.73
2023-04-29T11:50:52.519Z,13.85
2023-04-29T11:54:54.657Z,14.05
2023-04-29T11:58:58.158Z,14.18
2023-04-29T12:03:00.123Z,14.09
2023-04-29T12:07:04.094Z,14.06
2023-04-29T12:11:08.077Z,14.15
2023-04-29T12:15:10.886Z,14.17
2023-04-29T12:19:12.853Z,14.11
2023-04-29T12:23:19.571Z,14.16
2023-04-29T12:27:21.928Z,14.02
2023-04-29T12:31:24.704Z,13.94
2023-04-29T12:35:27.161Z,13.87
2023-04-29T12:39:31.324Z,13.97
2023-04-29T12:43:33.972Z,14.06
2023-04-29T12:47:37.366Z,14.01
2023-04-29T12:51:39.505Z,13.94
2023-04-29T12:55:41.490Z,13.97
2023-04-29T12:59:43.374Z,14.02
2023-04-29T13:03:45.457Z,14.01
2023-04-29T13:07:47.514Z,13.94
2023-04-29T13:11:49.334Z,13.83
2023-04-29T13:15:51.184Z,13.80
2023-04-29T13:19:52.985Z,13.79
2023-04-29T13:23:55.198Z,13.83
2023-04-29T13:27:56.994Z,13.89
2023-04-29T13:31:59.028Z,13.93
2023-04-29T13:36:01.108Z,13.97
2023-04-29T13:40:02.957Z,14.06
2023-04-29T13:44:07.586Z,14.05
2023-04-29T14:01:10.451Z,14.15
2023-04-29T14:05:01.980Z,14.09
2023-04-29T14:09:04.586Z,14.09
2023-04-29T14:13:06.623Z,14.06
2023-04-29T14:17:09.034Z,14.08
2023-04-29T14:21:11.565Z,14.11
2023-04-29T14:25:13.741Z,14.10
2023-04-29T14:29:15.638Z,14.03
2023-04-29T14:33:17.438Z,14.03
2023-04-29T14:37:19.478Z,14.00
2023-04-29T14:41:24.070Z,14.03
2023-04-29T14:45:26.142Z,14.11
2023-04-29T14:49:30.973Z,14.18
2023-04-29T14:53:34.042Z,14.11
2023-04-29T14:57:35.870Z,14.10
2023-04-29T15:01:38.648Z,14.13
2023-04-29T15:05:40.482Z,14.17
2023-04-29T15:09:42.643Z,14.18
2023-04-29T15:13:44.745Z,14.05
2023-04-29T15:17:47.323Z,14.07
2023-04-29T15:21:49.266Z,14.09
2023-04-29T15:25:51.231Z,14.12
2023-04-29T15:29:54.725Z,14.06
2023-04-29T15:33:56.797Z,13.94
2023-04-29T15:37:59.446Z,13.82
2023-04-29T15:42:01.262Z,13.78
2023-04-29T15:46:03.214Z,13.73
2023-04-29T15:50:05.504Z,13.67
2023-04-29T15:54:07.960Z,13.73
2023-04-29T15:58:09.779Z,13.76
2023-04-29T16:02:12.007Z,13.68
2023-04-29T16:06:13.887Z,13.66
2023-04-29T16:10:15.770Z,13.69
2023-04-29T16:14:17.562Z,13.74
2023-04-29T16:18:19.678Z,13.77
2023-04-29T16:22:21.513Z,13.85
2023-04-29T16:26:23.962Z,13.86
2023-04-29T16:30:25.841Z,13.93
2023-04-29T16:34:27.729Z,13.95
2023-04-29T16:38:29.577Z,13.98
2023-04-29T16:42:31.420Z,13.99
2023-04-29T16:46:33.658Z,13.95
2023-04-29T16:50:37.782Z,13.86
2023-04-29T16:54:39.771Z,13.83
2023-04-29T16:58:41.659Z,13.80
2023-04-29T17:02:45.309Z,13.90
2023-04-29T17:06:47.349Z,13.91
2023-04-29T17:10:49.295Z,13.87
2023-04-29T17:14:51.070Z,13.83
2023-04-29T17:18:53.002Z,13.78
2023-04-29T17:22:54.813Z,13.71
2023-04-29T17:26:56.817Z,13.68
2023-04-29T17:31:01.303Z,13.57
2023-04-29T17:35:03.687Z,13.48
2023-04-29T17:39:05.445Z,13.46
2023-04-29T17:43:07.213Z,13.41
2023-04-29T17:47:11.163Z,13.37
2023-04-29T17:51:12.989Z,13.29
2023-04-29T17:55:14.888Z,13.22
2023-04-29T17:59:16.760Z,13.19
2023-04-29T18:03:18.692Z,13.10
2023-04-29T18:07:20.569Z,13.02
2023-04-29T18:11:22.466Z,12.98
2023-04-29T18:15:24.414Z,12.96
2023-04-29T18:19:26.330Z,12.90
2023-04-29T18:23:28.196Z,12.80
2023-04-29T18:27:30.070Z,12.76
2023-04-29T18:31:32.061Z,12.65
2023-04-29T18:35:33.902Z,12.54
2023-04-29T18:39:35.862Z,12.42
2023-04-29T18:43:37.875Z,12.34
2023-04-29T18:47:39.686Z,12.26
2023-04-29T18:51:42.252Z,12.16
2023-04-29T18:55:44.432Z,12.03
2023-04-29T18:59:46.256Z,11.91
2023-04-29T19:03:48.095Z,11.77
2023-04-29T19:07:50.086Z,11.65
2023-04-29T19:11:52.000Z,11.57
2023-04-29T19:15:55.355Z,11.49
2023-04-29T19:19:57.241Z,11.43
2023-04-29T19:23:59.187Z,11.35
2023-04-29T19:28:01.009Z,11.28
2023-04-29T19:32:03.786Z,11.22
2023-04-29T19:36:05.678Z,11.17
2023-04-29T19:40:10.753Z,11.10
2023-04-29T19:44:12.702Z,11.04
2023-04-29T19:48:14.647Z,10.96
2023-04-29T19:52:16.440Z,10.87
2023-04-29T19:56:20.163Z,10.81
2023-04-29T20:00:22.521Z,10.76
2023-04-29T20:04:25.640Z,10.70
2023-04-29T20:08:27.598Z,10.64
2023-04-29T20:12:29.374Z,10.58
2023-04-29T20:16:32.272Z,10.51
2023-04-29T20:20:34.089Z,10.44
2023-04-29T20:24:35.968Z,10.37
2023-04-29T20:28:38.581Z,10.29
2023-04-29T20:32:40.519Z,10.24
2023-04-29T20:36:42.554Z,10.16
2023-04-29T20:40:44.617Z,10.09
2023-04-29T20:44:46.914Z,10.05
2023-04-29T20:48:49.176Z,9.99
2023-04-29T20:52:52.694Z,9.92
2023-04-29T20:56:54.514Z,9.86
2023-04-29T21:00:56.656Z,9.81
2023-04-29T21:04:58.606Z,9.80
2023-04-29T21:09:01.078Z,9.76
2023-04-29T21:13:03.045Z,9.72
2023-04-29T21:17:04.909Z,9.68
2023-04-29T21:21:06.903Z,9.65
2023-04-29T21:25:09.378Z,9.60
2023-04-29T21:29:11.250Z,9.53
2023-04-29T21:33:13.112Z,9.49
2023-04-29T21:37:15.842Z,9.44
2023-04-29T21:41:31.973Z,9.42
2023-04-29T21:45:34.369Z,9.38
2023-04-29T21:49:36.741Z,9.35
2023-04-29T21:53:38.763Z,9.33
2023-04-29T21:57:44.087Z,9.30
2023-04-29T22:01:46.598Z,9.30
2023-04-29T22:05:48.504Z,9.29
2023-04-29T22:09:50.326Z,9.28
2023-04-29T22:13:52.229Z,9.26
2023-04-29T22:17:54.454Z,9.23
2023-04-29T22:21:56.906Z,9.19
2023-04-29T22:25:58.712Z,9.16
2023-04-29T22:30:00.638Z,9.12
2023-04-29T22:34:02.692Z,9.10
2023-04-29T22:38:04.685Z,9.08
2023-04-29T22:42:07.305Z,9.07
2023-04-29T22:46:09.876Z,9.05
2023-04-29T22:50:11.978Z,9.01
2023-04-29T22:54:13.807Z,8.97
2023-04-29T22:58:15.845Z,8.94
2023-04-29T23:02:17.656Z,8.90
2023-04-29T23:06:21.453Z,8.86
2023-04-29T23:10:23.378Z,8.85
2023-04-29T23:14:25.210Z,8.82
2023-04-29T23:18:27.049Z,8.77
2023-04-29T23:22:28.998Z,8.73
2023-04-29T23:26:30.836Z,8.71
2023-04-29T23:30:33.204Z,8.68
2023-04-29T23:34:35.117Z,8.62
2023-04-29T23:38:36.928Z,8.61
2023-04-29T23:42:38.801Z,8.58
2023-04-29T23:46:40.784Z,8.53
2023-04-29T23:50:42.760Z,8.54
2023-04-29T23:54:44.562Z,8.54
2023-04-29T23:58:46.412Z,8.53
